Valiant — WCY6766 — position and weather

sailwx.info

Track history (hours):
 
Tides and Currents Weather Stations Pressure Air Temp Water Temp Dewpoint Dewpoint Depression Visibility Wind Speed Wind Dir Waves Ship Positions

Valiant

Owner: PENN MARITIME INC, SEATTLE, WA. More information available from US FCC via Universal Licensing System and Coast Guard Vessel Documentation Center.

Last reported at 2014-Dec-18 11:18 UTC. Time now 2014-Dec-22 14:57 UTC.
Position N 29°32' W 089°45'.

Length 165 m; draft 6.6 m.

Type: Cargo ship. MMSI: 369350000.

Date/timePositionNaut miles runAvg speedWind from/ knotsBaromVisibWave heightAir tempDewpointWater temp
2014-Dec-18 11:18N 29°32' W 089°45'911.4
2014-Dec-18 10:32N 29°37' W 089°54'18 8.4
2014-Dec-18 08:23N 29°55' W 089°55'11 9.4
2014-Dec-18 07:13N 29°55' W 090°08'6 7.4
2014-Dec-18 06:28N 29°57' W 090°13'15 0.5
2014-Dec-16 21:14N 29°53' W 089°57'0 0.0
2014-Dec-16 11:06N 29°53' W 089°57'0 0.0
2014-Dec-16 10:20N 29°53' W 089°57'0 0.0
2014-Dec-16 09:30N 29°53' W 089°57'0 0.0
2014-Dec-16 08:33N 29°53' W 089°57'0 0.0
2014-Dec-16 07:32N 29°53' W 089°57'256 5.3
2014-Dec-14 07:33N 29°26' W 094°50'9 9.5
2014-Dec-14 06:33N 29°34' W 094°55'9 9.4
2014-Dec-14 05:33N 29°42' W 095°00'6 6.1
2014-Dec-14 04:33N 29°44' W 095°07'1 0.1
2014-Dec-13 17:33N 29°44' W 095°08'0 0.0
2014-Dec-13 16:33N 29°44' W 095°08'0 0.0
2014-Dec-13 15:33N 29°44' W 095°08'0 0.0
2014-Dec-13 14:33N 29°44' W 095°08'0 0.0
2014-Dec-13 13:33N 29°44' W 095°08'0 0.0
2014-Dec-13 12:33N 29°44' W 095°08'0 0.0
2014-Dec-13 11:33N 29°44' W 095°08'0 0.0
2014-Dec-13 10:33N 29°44' W 095°08'0 0.0
2014-Dec-13 09:33N 29°44' W 095°08'0 0.0
2014-Dec-13 08:33N 29°44' W 095°08'0 0.0
2014-Dec-13 07:33N 29°44' W 095°08'0 0.0
2014-Dec-13 06:33N 29°44' W 095°08'0 0.0
2014-Dec-13 05:33N 29°44' W 095°08'0 0.0
2014-Dec-13 04:33N 29°44' W 095°08'0 0.0
2014-Dec-13 03:33N 29°44' W 095°08'0 0.0
2014-Dec-13 02:33N 29°44' W 095°08'0 0.0
2014-Dec-13 01:33N 29°44' W 095°08'0 0.0
2014-Dec-13 00:33N 29°44' W 095°08'0 0.0
2014-Dec-12 23:33N 29°44' W 095°08'0 0.0
2014-Dec-12 22:33N 29°44' W 095°08'0 0.0
2014-Dec-12 21:33N 29°44' W 095°08'0 0.0
2014-Dec-12 20:33N 29°44' W 095°08'0 0.0
2014-Dec-12 19:33N 29°44' W 095°08'0 0.0
2014-Dec-12 18:33N 29°44' W 095°08'0 0.0
2014-Dec-12 17:33N 29°44' W 095°08'0 0.0
2014-Dec-12 16:33N 29°44' W 095°08'0 0.0
2014-Dec-12 15:33N 29°44' W 095°08'0 0.0
2014-Dec-12 14:33N 29°44' W 095°08'3 2.7
2014-Dec-12 13:33N 29°46' W 095°05'8 7.8
2014-Dec-12 12:33N 29°40' W 094°59'1010.1
2014-Dec-12 11:33N 29°31' W 094°53'20 0.4
2014-Dec-10 11:33N 29°15' W 094°40'5 4.8
2014-Dec-10 10:33N 29°20' W 094°40'11 9.9
2014-Dec-10 09:24N 29°23' W 094°53'  
Track history (hours):
 
Tides and Currents Weather Stations Pressure Air Temp Water Temp Dewpoint Dewpoint Depression Visibility Wind Speed Wind Dir Waves Ship Positions

Valiant

Owner: PENN MARITIME INC, SEATTLE, WA. More information available from US FCC via Universal Licensing System and Coast Guard Vessel Documentation Center.

Last reported at 2014-Dec-18 11:18 UTC. Time now 2014-Dec-22 14:57 UTC.
Position N 29°32' W 089°45'.

Length 165 m; draft 6.6 m.

Type: Cargo ship. MMSI: 369350000.

Date/timePositionNaut miles runAvg speedWind from/ knotsBaromVisibWave heightAir tempDewpointWater temp
2014-Dec-18 11:18N 29°32' W 089°45'911.4
2014-Dec-18 10:32N 29°37' W 089°54'18 8.4
2014-Dec-18 08:23N 29°55' W 089°55'11 9.4
2014-Dec-18 07:13N 29°55' W 090°08'6 7.4
2014-Dec-18 06:28N 29°57' W 090°13'15 0.5
2014-Dec-16 21:14N 29°53' W 089°57'0 0.0
2014-Dec-16 11:06N 29°53' W 089°57'0 0.0
2014-Dec-16 10:20N 29°53' W 089°57'0 0.0
2014-Dec-16 09:30N 29°53' W 089°57'0 0.0
2014-Dec-16 08:33N 29°53' W 089°57'0 0.0
2014-Dec-16 07:32N 29°53' W 089°57'256 5.3
2014-Dec-14 07:33N 29°26' W 094°50'9 9.5
2014-Dec-14 06:33N 29°34' W 094°55'9 9.4
2014-Dec-14 05:33N 29°42' W 095°00'6 6.1
2014-Dec-14 04:33N 29°44' W 095°07'1 0.1
2014-Dec-13 17:33N 29°44' W 095°08'0 0.0
2014-Dec-13 16:33N 29°44' W 095°08'0 0.0
2014-Dec-13 15:33N 29°44' W 095°08'0 0.0
2014-Dec-13 14:33N 29°44' W 095°08'0 0.0
2014-Dec-13 13:33N 29°44' W 095°08'0 0.0
2014-Dec-13 12:33N 29°44' W 095°08'0 0.0
2014-Dec-13 11:33N 29°44' W 095°08'0 0.0
2014-Dec-13 10:33N 29°44' W 095°08'0 0.0
2014-Dec-13 09:33N 29°44' W 095°08'0 0.0
2014-Dec-13 08:33N 29°44' W 095°08'0 0.0
2014-Dec-13 07:33N 29°44' W 095°08'0 0.0
2014-Dec-13 06:33N 29°44' W 095°08'0 0.0
2014-Dec-13 05:33N 29°44' W 095°08'0 0.0
2014-Dec-13 04:33N 29°44' W 095°08'0 0.0
2014-Dec-13 03:33N 29°44' W 095°08'0 0.0
2014-Dec-13 02:33N 29°44' W 095°08'0 0.0
2014-Dec-13 01:33N 29°44' W 095°08'0 0.0
2014-Dec-13 00:33N 29°44' W 095°08'0 0.0
2014-Dec-12 23:33N 29°44' W 095°08'0 0.0
2014-Dec-12 22:33N 29°44' W 095°08'0 0.0
2014-Dec-12 21:33N 29°44' W 095°08'0 0.0
2014-Dec-12 20:33N 29°44' W 095°08'0 0.0
2014-Dec-12 19:33N 29°44' W 095°08'0 0.0
2014-Dec-12 18:33N 29°44' W 095°08'0 0.0
2014-Dec-12 17:33N 29°44' W 095°08'0 0.0
2014-Dec-12 16:33N 29°44' W 095°08'0 0.0
2014-Dec-12 15:33N 29°44' W 095°08'0 0.0
2014-Dec-12 14:33N 29°44' W 095°08'3 2.7
2014-Dec-12 13:33N 29°46' W 095°05'8 7.8
2014-Dec-12 12:33N 29°40' W 094°59'1010.1
2014-Dec-12 11:33N 29°31' W 094°53'20 0.4
2014-Dec-10 11:33N 29°15' W 094°40'5 4.8
2014-Dec-10 10:33N 29°20' W 094°40'11 9.9
2014-Dec-10 09:24N 29°23' W 094°53'  

Dump ship's entire track history